sensor_id;sensor_type;location;lat;lon;timestamp;temperature;humidity
3275;DHT22;1649;53.672;10.064;2023-04-25T00:02:11;8.20;99.90
3275;DHT22;1649;53.672;10.064;2023-04-25T00:04:37;8.10;99.90
3275;DHT22;1649;53.672;10.064;2023-04-25T00:07:03;8.10;99.90
3275;DHT22;1649;53.672;10.064;2023-04-25T00:09:29;8.00;99.90
3275;DHT22;1649;53.672;10.064;2023-04-25T00:11:54;8.00;99.90
3275;DHT22;1649;53.672;10.064;2023-04-25T00:14:20;8.00;99.90
3275;DHT22;1649;53.672;10.064;2023-04-25T00:16:45;8.00;99.90
3275;DHT22;1649;53.672;10.064;2023-04-25T00:19:11;8.00;99.90
3275;DHT22;1649;53.672;10.064;2023-04-25T00:21:37;8.00;99.90
3275;DHT22;1649;53.672;10.064;2023-04-25T00:24:10;7.90;99.90
3275;DHT22;1649;53.672;10.064;2023-04-25T00:26:36;7.80;99.90
3275;DHT22;1649;53.672;10.064;2023-04-25T00:29:01;7.70;99.90
3275;DHT22;1649;53.672;10.064;2023-04-25T00:31:27;7.60;99.90
3275;DHT22;1649;53.672;10.064;2023-04-25T00:33:54;7.60;99.90
3275;DHT22;1649;53.672;10.064;2023-04-25T00:36:19;7.60;99.90
3275;DHT22;1649;53.672;10.064;2023-04-25T00:38:45;7.60;99.90
3275;DHT22;1649;53.672;10.064;2023-04-25T00:41:10;7.50;99.90
3275;DHT22;1649;53.672;10.064;2023-04-25T00:43:37;7.60;99.90
3275;DHT22;1649;53.672;10.064;2023-04-25T00:46:02;7.60;99.90
3275;DHT22;1649;53.672;10.064;2023-04-25T00:48:28;7.70;99.90
3275;DHT22;1649;53.672;10.064;2023-04-25T00:50:57;7.70;99.90
3275;DHT22;1649;53.672;10.064;2023-04-25T00:53:24;7.80;99.90
3275;DHT22;1649;53.672;10.064;2023-04-25T00:55:50;7.70;99.90
3275;DHT22;1649;53.672;10.064;2023-04-25T00:58:22;7.80;99.90
3275;DHT22;1649;53.672;10.064;2023-04-25T01:00:49;7.80;99.90
3275;DHT22;1649;53.672;10.064;2023-04-25T01:03:16;7.60;99.90
3275;DHT22;1649;53.672;10.064;2023-04-25T01:05:43;7.60;99.90
3275;DHT22;1649;53.672;10.064;2023-04-25T01:08:09;7.60;99.90
3275;DHT22;1649;53.672;10.064;2023-04-25T01:10:35;7.70;99.90
3275;DHT22;1649;53.672;10.064;2023-04-25T01:13:01;7.70;99.90
3275;DHT22;1649;53.672;10.064;2023-04-25T01:15:26;7.70;99.90
3275;DHT22;1649;53.672;10.064;2023-04-25T01:17:52;7.80;99.90
3275;DHT22;1649;53.672;10.064;2023-04-25T01:20:21;7.70;99.90
3275;DHT22;1649;53.672;10.064;2023-04-25T01:22:48;7.70;99.90
3275;DHT22;1649;53.672;10.064;2023-04-25T01:25:14;7.60;99.90
3275;DHT22;1649;53.672;10.064;2023-04-25T01:27:41;7.50;99.90
3275;DHT22;1649;53.672;10.064;2023-04-25T01:30:07;7.50;99.90
3275;DHT22;1649;53.672;10.064;2023-04-25T01:32:33;7.50;99.90
3275;DHT22;1649;53.672;10.064;2023-04-25T01:35:05;7.40;99.90
3275;DHT22;1649;53.672;10.064;2023-04-25T01:37:36;7.40;99.90
3275;DHT22;1649;53.672;10.064;2023-04-25T01:40:01;7.40;99.90
3275;DHT22;1649;53.672;10.064;2023-04-25T01:42:27;7.30;99.90
3275;DHT22;1649;53.672;10.064;2023-04-25T01:44:52;7.30;99.90
3275;DHT22;1649;53.672;10.064;2023-04-25T01:47:24;7.30;99.90
3275;DHT22;1649;53.672;10.064;2023-04-25T01:49:50;7.20;99.90
3275;DHT22;1649;53.672;10.064;2023-04-25T01:52:15;7.20;99.90
3275;DHT22;1649;53.672;10.064;2023-04-25T01:54:41;7.20;99.90
3275;DHT22;1649;53.672;10.064;2023-04-25T01:57:09;7.20;99.90
3275;DHT22;1649;53.672;10.064;2023-04-25T01:59:35;7.10;99.90
3275;DHT22;1649;53.672;10.064;2023-04-25T02:02:01;7.20;99.90
3275;DHT22;1649;53.672;10.064;2023-04-25T02:04:29;7.20;99.90
3275;DHT22;1649;53.672;10.064;2023-04-25T02:06:55;7.10;99.90
3275;DHT22;1649;53.672;10.064;2023-04-25T02:09:20;7.10;99.90
3275;DHT22;1649;53.672;10.064;2023-04-25T02:11:46;7.10;99.90
3275;DHT22;1649;53.672;10.064;2023-04-25T02:14:12;7.00;99.90
3275;DHT22;1649;53.672;10.064;2023-04-25T02:16:37;7.00;99.90
3275;DHT22;1649;53.672;10.064;2023-04-25T02:19:03;7.00;99.90
3275;DHT22;1649;53.672;10.064;2023-04-25T02:21:29;7.00;99.90
3275;DHT22;1649;53.672;10.064;2023-04-25T02:23:55;7.10;99.90
3275;DHT22;1649;53.672;10.064;2023-04-25T02:26:21;7.10;99.90
3275;DHT22;1649;53.672;10.064;2023-04-25T02:28:49;7.10;99.90
3275;DHT22;1649;53.672;10.064;2023-04-25T02:31:15;7.00;99.90
3275;DHT22;1649;53.672;10.064;2023-04-25T02:33:40;7.00;99.90
3275;DHT22;1649;53.672;10.064;2023-04-25T02:36:06;7.00;99.90
3275;DHT22;1649;53.672;10.064;2023-04-25T02:38:32;7.00;99.90
3275;DHT22;1649;53.672;10.064;2023-04-25T02:40:57;6.90;99.90
3275;DHT22;1649;53.672;10.064;2023-04-25T02:43:23;6.90;99.90
3275;DHT22;1649;53.672;10.064;2023-04-25T02:45:48;6.90;99.90
3275;DHT22;1649;53.672;10.064;2023-04-25T02:48:14;6.90;99.90
3275;DHT22;1649;53.672;10.064;2023-04-25T02:50:39;7.00;99.90
3275;DHT22;1649;53.672;10.064;2023-04-25T02:53:05;6.90;99.90
3275;DHT22;1649;53.672;10.064;2023-04-25T02:55:30;7.00;99.90
3275;DHT22;1649;53.672;10.064;2023-04-25T02:57:56;7.00;99.90
3275;DHT22;1649;53.672;10.064;2023-04-25T03:00:21;6.80;99.90
3275;DHT22;1649;53.672;10.064;2023-04-25T03:02:47;6.70;99.90
3275;DHT22;1649;53.672;10.064;2023-04-25T03:05:13;6.70;99.90
3275;DHT22;1649;53.672;10.064;2023-04-25T03:07:39;6.60;99.90
3275;DHT22;1649;53.672;10.064;2023-04-25T03:10:06;6.60;99.90
3275;DHT22;1649;53.672;10.064;2023-04-25T03:12:32;6.70;99.90
3275;DHT22;1649;53.672;10.064;2023-04-25T03:14:57;6.60;99.90
3275;DHT22;1649;53.672;10.064;2023-04-25T03:17:22;6.60;99.90
3275;DHT22;1649;53.672;10.064;2023-04-25T03:19:48;6.50;99.90
3275;DHT22;1649;53.672;10.064;2023-04-25T03:22:13;6.40;99.90
3275;DHT22;1649;53.672;10.064;2023-04-25T03:24:39;6.40;99.90
3275;DHT22;1649;53.672;10.064;2023-04-25T03:27:05;6.30;99.90
3275;DHT22;1649;53.672;10.064;2023-04-25T03:29:30;6.40;99.90
3275;DHT22;1649;53.672;10.064;2023-04-25T03:31:56;6.30;99.90
3275;DHT22;1649;53.672;10.064;2023-04-25T03:34:21;6.30;99.90
3275;DHT22;1649;53.672;10.064;2023-04-25T03:36:47;6.30;99.90
3275;DHT22;1649;53.672;10.064;2023-04-25T03:39:13;6.10;99.90
3275;DHT22;1649;53.672;10.064;2023-04-25T03:41:38;6.10;99.90
3275;DHT22;1649;53.672;10.064;2023-04-25T03:44:04;6.00;99.90
3275;DHT22;1649;53.672;10.064;2023-04-25T03:46:29;6.00;99.90
3275;DHT22;1649;53.672;10.064;2023-04-25T03:48:55;6.00;99.90
3275;DHT22;1649;53.672;10.064;2023-04-25T03:51:20;6.00;99.90
3275;DHT22;1649;53.672;10.064;2023-04-25T03:53:46;5.90;99.90
3275;DHT22;1649;53.672;10.064;2023-04-25T03:56:11;5.80;99.90
3275;DHT22;1649;53.672;10.064;2023-04-25T03:58:36;5.70;99.90
3275;DHT22;1649;53.672;10.064;2023-04-25T04:01:02;5.70;99.90
3275;DHT22;1649;53.672;10.064;2023-04-25T04:03:33;5.80;99.90
3275;DHT22;1649;53.672;10.064;2023-04-25T04:06:00;5.80;99.90
3275;DHT22;1649;53.672;10.064;2023-04-25T04:08:25;5.80;99.90
3275;DHT22;1649;53.672;10.064;2023-04-25T04:10:51;5.80;99.90
3275;DHT22;1649;53.672;10.064;2023-04-25T04:13:16;5.80;99.90
3275;DHT22;1649;53.672;10.064;2023-04-25T04:15:42;5.70;99.90
3275;DHT22;1649;53.672;10.064;2023-04-25T04:18:07;5.70;99.90
3275;DHT22;1649;53.672;10.064;2023-04-25T04:20:33;5.60;99.90
3275;DHT22;1649;53.672;10.064;2023-04-25T04:22:58;5.70;99.90
3275;DHT22;1649;53.672;10.064;2023-04-25T04:25:24;5.80;99.90
3275;DHT22;1649;53.672;10.064;2023-04-25T04:27:50;5.70;99.90
3275;DHT22;1649;53.672;10.064;2023-04-25T04:30:20;5.70;99.90
3275;DHT22;1649;53.672;10.064;2023-04-25T04:32:46;5.80;99.90
3275;DHT22;1649;53.672;10.064;2023-04-25T04:35:14;5.80;99.90
3275;DHT22;1649;53.672;10.064;2023-04-25T04:37:39;5.80;99.90
3275;DHT22;1649;53.672;10.064;2023-04-25T04:40:05;5.90;99.90
3275;DHT22;1649;53.672;10.064;2023-04-25T04:42:32;6.00;99.90
3275;DHT22;1649;53.672;10.064;2023-04-25T04:44:57;5.90;99.90
3275;DHT22;1649;53.672;10.064;2023-04-25T04:47:24;6.00;99.90
3275;DHT22;1649;53.672;10.064;2023-04-25T04:49:50;6.10;99.90
3275;DHT22;1649;53.672;10.064;2023-04-25T04:52:16;6.10;99.90
3275;DHT22;1649;53.672;10.064;2023-04-25T04:54:42;6.10;99.90
3275;DHT22;1649;53.672;10.064;2023-04-25T04:57:07;6.20;99.90
3275;DHT22;1649;53.672;10.064;2023-04-25T04:59:32;6.10;99.90
3275;DHT22;1649;53.672;10.064;2023-04-25T05:01:58;6.20;99.90
3275;DHT22;1649;53.672;10.064;2023-04-25T05:04:23;6.10;99.90
3275;DHT22;1649;53.672;10.064;2023-04-25T05:06:49;6.10;99.90
3275;DHT22;1649;53.672;10.064;2023-04-25T05:09:15;6.10;99.90
3275;DHT22;1649;53.672;10.064;2023-04-25T05:11:40;6.20;99.90
3275;DHT22;1649;53.672;10.064;2023-04-25T05:14:06;6.20;99.90
3275;DHT22;1649;53.672;10.064;2023-04-25T05:16:31;6.20;99.90
3275;DHT22;1649;53.672;10.064;2023-04-25T05:18:57;6.20;99.90
3275;DHT22;1649;53.672;10.064;2023-04-25T05:21:22;6.20;99.90
3275;DHT22;1649;53.672;10.064;2023-04-25T05:23:48;6.10;99.90
3275;DHT22;1649;53.672;10.064;2023-04-25T05:26:13;6.00;99.90
3275;DHT22;1649;53.672;10.064;2023-04-25T05:28:40;6.00;99.90
3275;DHT22;1649;53.672;10.064;2023-04-25T05:31:06;6.00;99.90
3275;DHT22;1649;53.672;10.064;2023-04-25T05:33:32;6.10;99.90
3275;DHT22;1649;53.672;10.064;2023-04-25T05:35:57;6.10;99.90
3275;DHT22;1649;53.672;10.064;2023-04-25T05:38:23;6.20;99.90
3275;DHT22;1649;53.672;10.064;2023-04-25T05:40:48;6.30;99.90
3275;DHT22;1649;53.672;10.064;2023-04-25T05:43:14;6.40;99.90
3275;DHT22;1649;53.672;10.064;2023-04-25T05:45:39;6.40;99.90
3275;DHT22;1649;53.672;10.064;2023-04-25T05:48:05;6.40;99.90
3275;DHT22;1649;53.672;10.064;2023-04-25T05:50:30;6.40;99.90
3275;DHT22;1649;53.672;10.064;2023-04-25T05:52:56;6.50;99.90
3275;DHT22;1649;53.672;10.064;2023-04-25T05:55:21;6.40;99.90
3275;DHT22;1649;53.672;10.064;2023-04-25T05:57:47;6.40;99.90
3275;DHT22;1649;53.672;10.064;2023-04-25T06:00:13;6.40;99.90
3275;DHT22;1649;53.672;10.064;2023-04-25T06:02:41;6.40;99.90
3275;DHT22;1649;53.672;10.064;2023-04-25T06:05:07;6.40;99.90
3275;DHT22;1649;53.672;10.064;2023-04-25T06:07:33;6.30;99.90
3275;DHT22;1649;53.672;10.064;2023-04-25T06:09:58;6.40;99.90
3275;DHT22;1649;53.672;10.064;2023-04-25T06:12:25;6.30;99.90
3275;DHT22;1649;53.672;10.064;2023-04-25T06:14:50;6.30;99.90
3275;DHT22;1649;53.672;10.064;2023-04-25T06:17:16;6.40;99.90
3275;DHT22;1649;53.672;10.064;2023-04-25T06:19:41;6.50;99.90
3275;DHT22;1649;53.672;10.064;2023-04-25T06:22:07;6.70;99.90
3275;DHT22;1649;53.672;10.064;2023-04-25T06:24:33;6.70;99.90
3275;DHT22;1649;53.672;10.064;2023-04-25T06:26:59;6.80;99.90
3275;DHT22;1649;53.672;10.064;2023-04-25T06:29:25;6.90;99.90
3275;DHT22;1649;53.672;10.064;2023-04-25T06:31:50;7.00;99.90
3275;DHT22;1649;53.672;10.064;2023-04-25T06:34:16;7.20;99.90
3275;DHT22;1649;53.672;10.064;2023-04-25T06:36:42;7.20;99.90
3275;DHT22;1649;53.672;10.064;2023-04-25T06:39:09;7.20;99.90
3275;DHT22;1649;53.672;10.064;2023-04-25T06:41:34;7.30;99.90
3275;DHT22;1649;53.672;10.064;2023-04-25T06:44:00;7.20;99.90
3275;DHT22;1649;53.672;10.064;2023-04-25T06:46:26;7.20;99.90
3275;DHT22;1649;53.672;10.064;2023-04-25T06:48:52;7.10;99.90
3275;DHT22;1649;53.672;10.064;2023-04-25T06:51:17;7.10;99.90
3275;DHT22;1649;53.672;10.064;2023-04-25T06:53:43;7.10;99.90
3275;DHT22;1649;53.672;10.064;2023-04-25T06:56:08;6.90;99.90
3275;DHT22;1649;53.672;10.064;2023-04-25T06:58:34;6.80;99.90
3275;DHT22;1649;53.672;10.064;2023-04-25T07:01:00;6.60;99.90
3275;DHT22;1649;53.672;10.064;2023-04-25T07:03:25;6.70;99.90
3275;DHT22;1649;53.672;10.064;2023-04-25T07:05:51;6.60;99.90
3275;DHT22;1649;53.672;10.064;2023-04-25T07:08:16;6.70;99.90
3275;DHT22;1649;53.672;10.064;2023-04-25T07:10:42;6.90;99.90
3275;DHT22;1649;53.672;10.064;2023-04-25T07:13:08;7.10;99.90
3275;DHT22;1649;53.672;10.064;2023-04-25T07:15:34;7.30;99.90
3275;DHT22;1649;53.672;10.064;2023-04-25T07:17:59;7.10;99.90
3275;DHT22;1649;53.672;10.064;2023-04-25T07:20:25;6.80;99.90
3275;DHT22;1649;53.672;10.064;2023-04-25T07:22:52;6.70;99.90
3275;DHT22;1649;53.672;10.064;2023-04-25T07:25:18;6.60;99.90
3275;DHT22;1649;53.672;10.064;2023-04-25T07:27:44;6.70;99.90
3275;DHT22;1649;53.672;10.064;2023-04-25T07:30:10;6.90;99.90
3275;DHT22;1649;53.672;10.064;2023-04-25T07:32:36;7.00;99.90
3275;DHT22;1649;53.672;10.064;2023-04-25T07:35:01;7.20;99.90
3275;DHT22;1649;53.672;10.064;2023-04-25T07:37:28;7.40;99.90
3275;DHT22;1649;53.672;10.064;2023-04-25T07:39:54;7.60;99.90
3275;DHT22;1649;53.672;10.064;2023-04-25T07:42:19;7.70;99.90
3275;DHT22;1649;53.672;10.064;2023-04-25T07:44:46;7.90;99.90
3275;DHT22;1649;53.672;10.064;2023-04-25T07:47:12;8.20;99.90
3275;DHT22;1649;53.672;10.064;2023-04-25T07:49:38;8.30;99.90
3275;DHT22;1649;53.672;10.064;2023-04-25T07:52:05;8.40;99.90
3275;DHT22;1649;53.672;10.064;2023-04-25T07:54:31;8.60;99.90
3275;DHT22;1649;53.672;10.064;2023-04-25T07:56:57;8.80;99.90
3275;DHT22;1649;53.672;10.064;2023-04-25T07:59:22;9.70;99.90
3275;DHT22;1649;53.672;10.064;2023-04-25T08:01:48;10.70;99.90
3275;DHT22;1649;53.672;10.064;2023-04-25T08:04:14;10.80;99.90
3275;DHT22;1649;53.672;10.064;2023-04-25T08:06:39;10.70;99.90
3275;DHT22;1649;53.672;10.064;2023-04-25T08:09:06;10.30;99.90
3275;DHT22;1649;53.672;10.064;2023-04-25T08:11:31;9.80;99.90
3275;DHT22;1649;53.672;10.064;2023-04-25T08:13:57;9.50;99.90
3275;DHT22;1649;53.672;10.064;2023-04-25T08:16:22;9.10;99.90
3275;DHT22;1649;53.672;10.064;2023-04-25T08:18:49;8.50;99.90
3275;DHT22;1649;53.672;10.064;2023-04-25T08:21:15;7.70;99.90
3275;DHT22;1649;53.672;10.064;2023-04-25T08:23:40;7.40;99.90
3275;DHT22;1649;53.672;10.064;2023-04-25T08:26:06;7.20;99.90
3275;DHT22;1649;53.672;10.064;2023-04-25T08:28:32;7.30;99.90
3275;DHT22;1649;53.672;10.064;2023-04-25T08:30:57;7.60;99.90
3275;DHT22;1649;53.672;10.064;2023-04-25T08:33:23;8.70;99.90
3275;DHT22;1649;53.672;10.064;2023-04-25T08:35:49;9.70;99.90
3275;DHT22;1649;53.672;10.064;2023-04-25T08:38:14;9.90;99.90
3275;DHT22;1649;53.672;10.064;2023-04-25T08:40:40;9.80;99.90
3275;DHT22;1649;53.672;10.064;2023-04-25T08:43:06;9.60;99.90
3275;DHT22;1649;53.672;10.064;2023-04-25T08:45:39;9.80;99.90
3275;DHT22;1649;53.672;10.064;2023-04-25T08:48:09;10.30;99.90
3275;DHT22;1649;53.672;10.064;2023-04-25T08:50:37;11.20;99.90
3275;DHT22;1649;53.672;10.064;2023-04-25T08:53:04;12.40;99.90
3275;DHT22;1649;53.672;10.064;2023-04-25T08:55:33;13.40;99.90
3275;DHT22;1649;53.672;10.064;2023-04-25T08:58:00;14.20;99.90
3275;DHT22;1649;53.672;10.064;2023-04-25T09:00:26;14.00;99.90
3275;DHT22;1649;53.672;10.064;2023-04-25T09:02:52;13.20;99.90
3275;DHT22;1649;53.672;10.064;2023-04-25T09:05:19;12.40;99.90
3275;DHT22;1649;53.672;10.064;2023-04-25T09:07:44;11.50;99.90
3275;DHT22;1649;53.672;10.064;2023-04-25T09:10:10;11.20;99.90
3275;DHT22;1649;53.672;10.064;2023-04-25T09:12:35;10.90;99.90
3275;DHT22;1649;53.672;10.064;2023-04-25T09:15:11;10.70;99.90
3275;DHT22;1649;53.672;10.064;2023-04-25T09:17:37;10.60;99.90
3275;DHT22;1649;53.672;10.064;2023-04-25T09:20:10;10.30;99.90
3275;DHT22;1649;53.672;10.064;2023-04-25T09:22:37;10.10;99.90
3275;DHT22;1649;53.672;10.064;2023-04-25T09:25:07;10.00;99.90
3275;DHT22;1649;53.672;10.064;2023-04-25T09:27:33;9.80;99.90
3275;DHT22;1649;53.672;10.064;2023-04-25T09:30:00;9.80;99.90
3275;DHT22;1649;53.672;10.064;2023-04-25T09:32:26;10.20;99.90
3275;DHT22;1649;53.672;10.064;2023-04-25T09:34:53;10.80;99.90
3275;DHT22;1649;53.672;10.064;2023-04-25T09:37:22;11.70;99.90
3275;DHT22;1649;53.672;10.064;2023-04-25T09:39:56;12.80;99.90
3275;DHT22;1649;53.672;10.064;2023-04-25T09:42:23;13.20;96.00
3275;DHT22;1649;53.672;10.064;2023-04-25T09:44:52;13.30;95.10
3275;DHT22;1649;53.672;10.064;2023-04-25T09:47:18;12.70;95.50
3275;DHT22;1649;53.672;10.064;2023-04-25T09:49:47;11.80;96.60
3275;DHT22;1649;53.672;10.064;2023-04-25T09:52:20;10.60;99.90
3275;DHT22;1649;53.672;10.064;2023-04-25T09:54:47;10.00;99.90
3275;DHT22;1649;53.672;10.064;2023-04-25T09:59:47;9.60;99.90
3275;DHT22;1649;53.672;10.064;2023-04-25T10:02:14;10.00;99.90
3275;DHT22;1649;53.672;10.064;2023-04-25T10:04:41;10.70;99.90
3275;DHT22;1649;53.672;10.064;2023-04-25T10:07:07;11.50;99.90
3275;DHT22;1649;53.672;10.064;2023-04-25T10:09:36;12.50;99.90
3275;DHT22;1649;53.672;10.064;2023-04-25T10:12:03;13.30;99.90
3275;DHT22;1649;53.672;10.064;2023-04-25T10:14:30;14.00;98.90
3275;DHT22;1649;53.672;10.064;2023-04-25T10:16:57;13.40;95.40
3275;DHT22;1649;53.672;10.064;2023-04-25T10:19:24;13.00;96.00
3275;DHT22;1649;53.672;10.064;2023-04-25T10:21:58;13.00;96.50
3275;DHT22;1649;53.672;10.064;2023-04-25T10:24:28;12.60;94.50
3275;DHT22;1649;53.672;10.064;2023-04-25T10:26:53;12.50;93.60
3275;DHT22;1649;53.672;10.064;2023-04-25T10:29:26;12.60;95.70
3275;DHT22;1649;53.672;10.064;2023-04-25T10:31:52;12.50;94.70
3275;DHT22;1649;53.672;10.064;2023-04-25T10:34:18;12.30;94.50
3275;DHT22;1649;53.672;10.064;2023-04-25T10:36:49;12.30;97.50
3275;DHT22;1649;53.672;10.064;2023-04-25T10:39:22;12.60;97.70
3275;DHT22;1649;53.672;10.064;2023-04-25T10:41:58;12.90;96.10
3275;DHT22;1649;53.672;10.064;2023-04-25T10:44:27;13.30;96.60
3275;DHT22;1649;53.672;10.064;2023-04-25T10:46:59;14.10;95.30
3275;DHT22;1649;53.672;10.064;2023-04-25T10:49:35;13.90;94.90
3275;DHT22;1649;53.672;10.064;2023-04-25T10:54:52;12.10;95.20
3275;DHT22;1649;53.672;10.064;2023-04-25T11:00:16;10.80;95.60
3275;DHT22;1649;53.672;10.064;2023-04-25T11:02:52;10.70;98.00
3275;DHT22;1649;53.672;10.064;2023-04-25T11:05:35;11.30;99.90
3275;DHT22;1649;53.672;10.064;2023-04-25T11:08:02;11.40;97.30
3275;DHT22;1649;53.672;10.064;2023-04-25T11:10:30;11.30;99.60
3275;DHT22;1649;53.672;10.064;2023-04-25T11:12:56;11.00;99.10
3275;DHT22;1649;53.672;10.064;2023-04-25T11:15:22;10.70;99.40
3275;DHT22;1649;53.672;10.064;2023-04-25T11:17:50;10.70;97.00
3275;DHT22;1649;53.672;10.064;2023-04-25T11:20:16;10.50;97.60
3275;DHT22;1649;53.672;10.064;2023-04-25T11:22:41;10.40;98.80
3275;DHT22;1649;53.672;10.064;2023-04-25T11:25:10;10.50;99.90
3275;DHT22;1649;53.672;10.064;2023-04-25T11:27:53;10.40;99.70
3275;DHT22;1649;53.672;10.064;2023-04-25T11:30:19;10.50;99.90
3275;DHT22;1649;53.672;10.064;2023-04-25T11:32:45;10.80;99.40
3275;DHT22;1649;53.672;10.064;2023-04-25T11:35:12;11.20;99.90
3275;DHT22;1649;53.672;10.064;2023-04-25T11:37:41;11.90;99.90
3275;DHT22;1649;53.672;10.064;2023-04-25T11:40:08;12.40;99.90
3275;DHT22;1649;53.672;10.064;2023-04-25T11:42:36;12.80;97.90
3275;DHT22;1649;53.672;10.064;2023-04-25T11:45:03;13.10;98.70
3275;DHT22;1649;53.672;10.064;2023-04-25T11:47:30;13.30;96.10
3275;DHT22;1649;53.672;10.064;2023-04-25T11:49:58;13.30;95.20
3275;DHT22;1649;53.672;10.064;2023-04-25T11:52:23;13.10;92.70
3275;DHT22;1649;53.672;10.064;2023-04-25T11:54:49;13.50;95.20
3275;DHT22;1649;53.672;10.064;2023-04-25T11:57:14;14.00;93.90
3275;DHT22;1649;53.672;10.064;2023-04-25T11:59:40;13.60;89.20
3275;DHT22;1649;53.672;10.064;2023-04-25T12:02:05;13.60;91.00
3275;DHT22;1649;53.672;10.064;2023-04-25T12:04:32;13.70;91.30
3275;DHT22;1649;53.672;10.064;2023-04-25T12:06:57;13.60;91.10
3275;DHT22;1649;53.672;10.064;2023-04-25T12:09:33;13.00;88.20
3275;DHT22;1649;53.672;10.064;2023-04-25T12:12:00;12.50;89.30
3275;DHT22;1649;53.672;10.064;2023-04-25T12:14:30;12.20;90.50
3275;DHT22;1649;53.672;10.064;2023-04-25T12:16:58;11.90;92.90
3275;DHT22;1649;53.672;10.064;2023-04-25T12:19:24;11.50;91.50
3275;DHT22;1649;53.672;10.064;2023-04-25T12:21:50;11.60;93.10
3275;DHT22;1649;53.672;10.064;2023-04-25T12:26:53;11.40;94.60
3275;DHT22;1649;53.672;10.064;2023-04-25T12:29:24;11.30;95.40
3275;DHT22;1649;53.672;10.064;2023-04-25T12:31:51;12.00;99.80
3275;DHT22;1649;53.672;10.064;2023-04-25T12:34:21;12.60;98.90
3275;DHT22;1649;53.672;10.064;2023-04-25T12:36:47;13.10;95.20
3275;DHT22;1649;53.672;10.064;2023-04-25T12:39:21;13.10;93.20
3275;DHT22;1649;53.672;10.064;2023-04-25T12:41:51;12.60;91.10
3275;DHT22;1649;53.672;10.064;2023-04-25T12:44:19;12.20;93.10
3275;DHT22;1649;53.672;10.064;2023-04-25T12:46:45;11.90;94.10
3275;DHT22;1649;53.672;10.064;2023-04-25T12:49:10;11.70;94.30
3275;DHT22;1649;53.672;10.064;2023-04-25T12:51:37;11.40;94.90
3275;DHT22;1649;53.672;10.064;2023-04-25T12:54:04;11.00;96.10
3275;DHT22;1649;53.672;10.064;2023-04-25T12:56:30;10.60;97.70
3275;DHT22;1649;53.672;10.064;2023-04-25T12:58:57;10.40;98.20
3275;DHT22;1649;53.672;10.064;2023-04-25T13:01:23;10.00;99.90
3275;DHT22;1649;53.672;10.064;2023-04-25T13:03:49;10.30;99.90
3275;DHT22;1649;53.672;10.064;2023-04-25T13:06:16;10.70;99.90
3275;DHT22;1649;53.672;10.064;2023-04-25T13:08:42;10.70;99.90
3275;DHT22;1649;53.672;10.064;2023-04-25T13:11:08;11.30;99.90
3275;DHT22;1649;53.672;10.064;2023-04-25T13:13:34;11.80;99.90
3275;DHT22;1649;53.672;10.064;2023-04-25T13:16:01;12.00;95.60
3275;DHT22;1649;53.672;10.064;2023-04-25T13:18:27;11.90;98.50
3275;DHT22;1649;53.672;10.064;2023-04-25T13:20:53;11.70;97.40
3275;DHT22;1649;53.672;10.064;2023-04-25T13:23:19;11.50;96.30
3275;DHT22;1649;53.672;10.064;2023-04-25T13:25:46;11.10;96.90
3275;DHT22;1649;53.672;10.064;2023-04-25T13:28:11;10.50;99.90
3275;DHT22;1649;53.672;10.064;2023-04-25T13:30:37;10.10;99.90
3275;DHT22;1649;53.672;10.064;2023-04-25T13:33:02;10.20;99.90
3275;DHT22;1649;53.672;10.064;2023-04-25T13:35:29;10.40;99.90
3275;DHT22;1649;53.672;10.064;2023-04-25T13:37:55;10.60;99.90
3275;DHT22;1649;53.672;10.064;2023-04-25T13:40:21;10.80;99.90
3275;DHT22;1649;53.672;10.064;2023-04-25T13:42:46;11.00;99.90
3275;DHT22;1649;53.672;10.064;2023-04-25T13:45:12;10.90;99.90
3275;DHT22;1649;53.672;10.064;2023-04-25T13:47:37;10.80;99.90
3275;DHT22;1649;53.672;10.064;2023-04-25T13:50:06;10.40;99.90
3275;DHT22;1649;53.672;10.064;2023-04-25T13:52:32;9.70;99.90
3275;DHT22;1649;53.672;10.064;2023-04-25T13:54:58;9.30;99.90
3275;DHT22;1649;53.672;10.064;2023-04-25T13:57:24;9.10;99.90
3275;DHT22;1649;53.672;10.064;2023-04-25T13:59:50;9.10;99.90
3275;DHT22;1649;53.672;10.064;2023-04-25T14:02:16;9.20;99.90
3275;DHT22;1649;53.672;10.064;2023-04-25T14:04:42;9.30;99.90
3275;DHT22;1649;53.672;10.064;2023-04-25T14:07:08;9.50;99.90
3275;DHT22;1649;53.672;10.064;2023-04-25T14:09:34;9.70;99.90
3275;DHT22;1649;53.672;10.064;2023-04-25T14:11:59;9.80;99.90
3275;DHT22;1649;53.672;10.064;2023-04-25T14:14:25;9.90;99.90
3275;DHT22;1649;53.672;10.064;2023-04-25T14:16:51;10.00;99.90
3275;DHT22;1649;53.672;10.064;2023-04-25T14:19:19;10.30;99.90
3275;DHT22;1649;53.672;10.064;2023-04-25T14:21:45;10.40;99.90
3275;DHT22;1649;53.672;10.064;2023-04-25T14:24:12;10.30;99.90
3275;DHT22;1649;53.672;10.064;2023-04-25T14:26:38;10.20;99.90
3275;DHT22;1649;53.672;10.064;2023-04-25T14:29:05;10.30;99.90
3275;DHT22;1649;53.672;10.064;2023-04-25T14:31:31;10.30;99.20
3275;DHT22;1649;53.672;10.064;2023-04-25T14:33:56;10.50;99.90
3275;DHT22;1649;53.672;10.064;2023-04-25T14:36:22;10.70;99.90
3275;DHT22;1649;53.672;10.064;2023-04-25T14:38:47;10.80;99.60
3275;DHT22;1649;53.672;10.064;2023-04-25T14:41:13;10.90;98.80
3275;DHT22;1649;53.672;10.064;2023-04-25T14:43:38;11.00;98.50
3275;DHT22;1649;53.672;10.064;2023-04-25T14:46:06;11.10;97.30
3275;DHT22;1649;53.672;10.064;2023-04-25T14:48:32;11.10;97.10
3275;DHT22;1649;53.672;10.064;2023-04-25T14:50:57;10.80;95.30
3275;DHT22;1649;53.672;10.064;2023-04-25T14:53:23;10.80;97.60
3275;DHT22;1649;53.672;10.064;2023-04-25T14:55:48;10.60;96.60
3275;DHT22;1649;53.672;10.064;2023-04-25T14:58:14;10.30;97.10
3275;DHT22;1649;53.672;10.064;2023-04-25T15:00:40;10.10;98.40
3275;DHT22;1649;53.672;10.064;2023-04-25T15:03:05;10.30;98.80
3275;DHT22;1649;53.672;10.064;2023-04-25T15:05:33;10.30;98.70
3275;DHT22;1649;53.672;10.064;2023-04-25T15:07:58;10.30;99.90
3275;DHT22;1649;53.672;10.064;2023-04-25T15:10:24;10.00;99.90
3275;DHT22;1649;53.672;10.064;2023-04-25T15:12:49;9.70;99.90
3275;DHT22;1649;53.672;10.064;2023-04-25T15:15:15;9.40;99.90
3275;DHT22;1649;53.672;10.064;2023-04-25T15:17:41;9.10;99.40
3275;DHT22;1649;53.672;10.064;2023-04-25T15:20:09;8.90;98.50
3275;DHT22;1649;53.672;10.064;2023-04-25T15:22:36;9.10;99.00
3275;DHT22;1649;53.672;10.064;2023-04-25T15:25:02;9.20;99.50
3275;DHT22;1649;53.672;10.064;2023-04-25T15:27:28;9.30;99.90
3275;DHT22;1649;53.672;10.064;2023-04-25T15:29:53;9.40;99.90
3275;DHT22;1649;53.672;10.064;2023-04-25T15:32:19;9.50;99.90
3275;DHT22;1649;53.672;10.064;2023-04-25T15:34:46;9.80;99.90
3275;DHT22;1649;53.672;10.064;2023-04-25T15:37:11;10.00;99.90
3275;DHT22;1649;53.672;10.064;2023-04-25T15:39:37;10.20;99.90
3275;DHT22;1649;53.672;10.064;2023-04-25T15:42:02;10.00;99.90
3275;DHT22;1649;53.672;10.064;2023-04-25T15:44:28;9.70;99.90
3275;DHT22;1649;53.672;10.064;2023-04-25T15:46:53;9.50;99.90
3275;DHT22;1649;53.672;10.064;2023-04-25T15:49:19;9.30;99.90
3275;DHT22;1649;53.672;10.064;2023-04-25T15:51:49;9.20;99.90
3275;DHT22;1649;53.672;10.064;2023-04-25T15:54:15;9.10;99.90
3275;DHT22;1649;53.672;10.064;2023-04-25T15:56:41;9.00;99.90
3275;DHT22;1649;53.672;10.064;2023-04-25T15:59:06;9.20;99.90
3275;DHT22;1649;53.672;10.064;2023-04-25T16:01:32;9.40;99.90